sensor_id;sensor_type;location;lat;lon;timestamp;P1;durP1;ratioP1;P2;durP2;ratioP2
47309;SDS011;33046;52.270;6.832;2023-11-19T00:00:00;10.88;;;10.00;;
47309;SDS011;33046;52.270;6.832;2023-11-19T00:02:07;12.80;;;11.55;;
47309;SDS011;33046;52.270;6.832;2023-11-19T00:04:14;12.40;;;11.10;;
47309;SDS011;33046;52.270;6.832;2023-11-19T00:06:21;12.23;;;11.02;;
47309;SDS011;33046;52.270;6.832;2023-11-19T00:08:27;37.20;;;13.63;;
47309;SDS011;33046;52.270;6.832;2023-11-19T00:10:34;14.57;;;13.23;;
47309;SDS011;33046;52.270;6.832;2023-11-19T00:12:41;14.23;;;12.93;;
47309;SDS011;33046;52.270;6.832;2023-11-19T00:14:49;15.98;;;14.43;;
47309;SDS011;33046;52.270;6.832;2023-11-19T00:16:57;15.55;;;14.13;;
47309;SDS011;33046;52.270;6.832;2023-11-19T00:19:04;15.95;;;14.45;;
47309;SDS011;33046;52.270;6.832;2023-11-19T00:21:11;17.33;;;15.68;;
47309;SDS011;33046;52.270;6.832;2023-11-19T00:23:18;14.93;;;13.63;;
47309;SDS011;33046;52.270;6.832;2023-11-19T00:25:25;16.88;;;15.27;;
47309;SDS011;33046;52.270;6.832;2023-11-19T00:27:31;17.67;;;15.52;;
47309;SDS011;33046;52.270;6.832;2023-11-19T00:29:38;19.77;;;16.52;;
47309;SDS011;33046;52.270;6.832;2023-11-19T00:31:46;18.60;;;16.83;;
47309;SDS011;33046;52.270;6.832;2023-11-19T00:33:54;16.73;;;15.15;;
47309;SDS011;33046;52.270;6.832;2023-11-19T00:36:01;17.55;;;15.77;;
47309;SDS011;33046;52.270;6.832;2023-11-19T00:38:08;18.88;;;16.98;;
47309;SDS011;33046;52.270;6.832;2023-11-19T00:40:15;21.88;;;19.40;;
47309;SDS011;33046;52.270;6.832;2023-11-19T00:42:22;20.02;;;17.90;;
47309;SDS011;33046;52.270;6.832;2023-11-19T00:44:29;22.48;;;20.13;;
47309;SDS011;33046;52.270;6.832;2023-11-19T00:46:36;22.27;;;19.55;;
47309;SDS011;33046;52.270;6.832;2023-11-19T00:48:43;22.25;;;19.38;;
47309;SDS011;33046;52.270;6.832;2023-11-19T00:50:51;23.30;;;20.88;;
47309;SDS011;33046;52.270;6.832;2023-11-19T00:52:58;26.58;;;22.70;;
47309;SDS011;33046;52.270;6.832;2023-11-19T00:55:05;26.77;;;23.92;;
47309;SDS011;33046;52.270;6.832;2023-11-19T00:57:12;25.83;;;22.75;;
47309;SDS011;33046;52.270;6.832;2023-11-19T00:59:19;22.80;;;20.35;;
47309;SDS011;33046;52.270;6.832;2023-11-19T01:01:26;23.08;;;20.75;;
47309;SDS011;33046;52.270;6.832;2023-11-19T01:03:33;22.92;;;20.52;;
47309;SDS011;33046;52.270;6.832;2023-11-19T01:05:40;25.90;;;19.70;;
47309;SDS011;33046;52.270;6.832;2023-11-19T01:07:49;26.45;;;21.23;;
47309;SDS011;33046;52.270;6.832;2023-11-19T01:09:56;24.77;;;20.83;;
47309;SDS011;33046;52.270;6.832;2023-11-19T01:12:03;22.67;;;19.05;;
47309;SDS011;33046;52.270;6.832;2023-11-19T01:14:11;22.80;;;20.38;;
47309;SDS011;33046;52.270;6.832;2023-11-19T01:16:18;24.83;;;21.83;;
47309;SDS011;33046;52.270;6.832;2023-11-19T01:18:26;24.67;;;19.65;;
47309;SDS011;33046;52.270;6.832;2023-11-19T01:20:33;24.00;;;21.60;;
47309;SDS011;33046;52.270;6.832;2023-11-19T01:22:40;24.73;;;20.80;;
47309;SDS011;33046;52.270;6.832;2023-11-19T01:24:48;21.70;;;19.58;;
47309;SDS011;33046;52.270;6.832;2023-11-19T01:26:55;22.88;;;18.73;;
47309;SDS011;33046;52.270;6.832;2023-11-19T01:29:02;22.98;;;18.15;;
47309;SDS011;33046;52.270;6.832;2023-11-19T01:31:09;20.63;;;17.40;;
47309;SDS011;33046;52.270;6.832;2023-11-19T01:33:15;20.65;;;18.55;;
47309;SDS011;33046;52.270;6.832;2023-11-19T01:35:22;21.58;;;19.13;;
47309;SDS011;33046;52.270;6.832;2023-11-19T01:37:31;21.70;;;19.55;;
47309;SDS011;33046;52.270;6.832;2023-11-19T01:39:38;22.42;;;19.35;;
47309;SDS011;33046;52.270;6.832;2023-11-19T01:41:46;21.35;;;19.13;;
47309;SDS011;33046;52.270;6.832;2023-11-19T01:43:53;22.88;;;19.17;;
47309;SDS011;33046;52.270;6.832;2023-11-19T01:46:00;22.95;;;20.40;;
47309;SDS011;33046;52.270;6.832;2023-11-19T01:48:07;20.70;;;18.08;;
47309;SDS011;33046;52.270;6.832;2023-11-19T01:50:14;22.23;;;17.58;;
47309;SDS011;33046;52.270;6.832;2023-11-19T01:52:21;20.63;;;18.42;;
47309;SDS011;33046;52.270;6.832;2023-11-19T01:54:29;23.95;;;17.65;;
47309;SDS011;33046;52.270;6.832;2023-11-19T01:56:36;27.45;;;17.15;;
47309;SDS011;33046;52.270;6.832;2023-11-19T01:58:46;29.08;;;17.85;;
47309;SDS011;33046;52.270;6.832;2023-11-19T02:00:55;22.38;;;16.73;;
47309;SDS011;33046;52.270;6.832;2023-11-19T02:03:02;24.65;;;17.52;;
47309;SDS011;33046;52.270;6.832;2023-11-19T02:05:10;21.50;;;16.98;;
47309;SDS011;33046;52.270;6.832;2023-11-19T02:07:18;22.02;;;16.95;;
47309;SDS011;33046;52.270;6.832;2023-11-19T02:09:25;21.73;;;16.92;;
47309;SDS011;33046;52.270;6.832;2023-11-19T02:11:32;18.80;;;15.27;;
47309;SDS011;33046;52.270;6.832;2023-11-19T02:13:39;19.75;;;15.30;;
47309;SDS011;33046;52.270;6.832;2023-11-19T02:15:47;29.10;;;17.63;;
47309;SDS011;33046;52.270;6.832;2023-11-19T02:17:54;20.17;;;15.70;;
47309;SDS011;33046;52.270;6.832;2023-11-19T02:20:01;20.67;;;15.70;;
47309;SDS011;33046;52.270;6.832;2023-11-19T02:22:08;31.92;;;17.20;;
47309;SDS011;33046;52.270;6.832;2023-11-19T02:24:15;22.70;;;15.55;;
47309;SDS011;33046;52.270;6.832;2023-11-19T02:26:28;29.05;;;18.17;;
47309;SDS011;33046;52.270;6.832;2023-11-19T02:28:41;21.77;;;15.38;;
47309;SDS011;33046;52.270;6.832;2023-11-19T02:30:48;20.00;;;14.85;;
47309;SDS011;33046;52.270;6.832;2023-11-19T02:32:55;22.08;;;13.93;;
47309;SDS011;33046;52.270;6.832;2023-11-19T02:35:02;19.80;;;12.48;;
47309;SDS011;33046;52.270;6.832;2023-11-19T02:37:12;25.90;;;13.98;;
47309;SDS011;33046;52.270;6.832;2023-11-19T02:39:19;30.67;;;12.45;;
47309;SDS011;33046;52.270;6.832;2023-11-19T02:41:26;18.33;;;12.05;;
47309;SDS011;33046;52.270;6.832;2023-11-19T02:43:33;31.60;;;13.50;;
47309;SDS011;33046;52.270;6.832;2023-11-19T02:45:42;19.58;;;11.15;;
47309;SDS011;33046;52.270;6.832;2023-11-19T02:47:50;17.08;;;11.50;;
47309;SDS011;33046;52.270;6.832;2023-11-19T02:49:57;20.58;;;11.10;;
47309;SDS011;33046;52.270;6.832;2023-11-19T02:52:05;24.00;;;10.52;;
47309;SDS011;33046;52.270;6.832;2023-11-19T02:54:13;28.27;;;13.02;;
47309;SDS011;33046;52.270;6.832;2023-11-19T02:56:20;22.10;;;10.60;;
47309;SDS011;33046;52.270;6.832;2023-11-19T02:58:27;16.88;;;8.95;;
47309;SDS011;33046;52.270;6.832;2023-11-19T03:00:33;19.00;;;9.98;;
47309;SDS011;33046;52.270;6.832;2023-11-19T03:02:42;19.85;;;10.85;;
47309;SDS011;33046;52.270;6.832;2023-11-19T03:04:49;25.17;;;9.65;;
47309;SDS011;33046;52.270;6.832;2023-11-19T03:06:55;23.20;;;10.38;;
47309;SDS011;33046;52.270;6.832;2023-11-19T03:09:02;22.77;;;9.25;;
47309;SDS011;33046;52.270;6.832;2023-11-19T03:11:09;18.95;;;8.40;;
47309;SDS011;33046;52.270;6.832;2023-11-19T03:13:16;22.77;;;8.07;;
47309;SDS011;33046;52.270;6.832;2023-11-19T03:15:23;20.85;;;8.02;;
47309;SDS011;33046;52.270;6.832;2023-11-19T03:17:31;22.75;;;9.13;;
47309;SDS011;33046;52.270;6.832;2023-11-19T03:19:39;24.60;;;8.90;;
47309;SDS011;33046;52.270;6.832;2023-11-19T03:21:46;20.40;;;7.38;;
47309;SDS011;33046;52.270;6.832;2023-11-19T03:23:53;23.73;;;6.22;;
47309;SDS011;33046;52.270;6.832;2023-11-19T03:26:00;32.05;;;9.68;;
47309;SDS011;33046;52.270;6.832;2023-11-19T03:28:07;21.92;;;7.30;;
47309;SDS011;33046;52.270;6.832;2023-11-19T03:30:14;28.23;;;6.63;;
47309;SDS011;33046;52.270;6.832;2023-11-19T03:32:20;23.08;;;5.28;;
47309;SDS011;33046;52.270;6.832;2023-11-19T03:34:27;19.92;;;5.43;;
47309;SDS011;33046;52.270;6.832;2023-11-19T03:36:35;21.23;;;6.38;;
47309;SDS011;33046;52.270;6.832;2023-11-19T03:38:42;20.30;;;5.72;;
47309;SDS011;33046;52.270;6.832;2023-11-19T03:40:49;24.40;;;5.40;;
47309;SDS011;33046;52.270;6.832;2023-11-19T03:42:57;28.50;;;6.18;;
47309;SDS011;33046;52.270;6.832;2023-11-19T03:45:04;27.98;;;6.45;;
47309;SDS011;33046;52.270;6.832;2023-11-19T03:47:11;25.00;;;5.57;;
47309;SDS011;33046;52.270;6.832;2023-11-19T03:49:18;28.90;;;7.22;;
47309;SDS011;33046;52.270;6.832;2023-11-19T03:51:25;17.30;;;5.43;;
47309;SDS011;33046;52.270;6.832;2023-11-19T03:53:33;31.08;;;7.88;;
47309;SDS011;33046;52.270;6.832;2023-11-19T03:55:40;23.48;;;5.15;;
47309;SDS011;33046;52.270;6.832;2023-11-19T03:57:47;22.88;;;4.57;;
47309;SDS011;33046;52.270;6.832;2023-11-19T03:59:54;29.27;;;4.72;;
47309;SDS011;33046;52.270;6.832;2023-11-19T04:02:00;26.13;;;6.60;;
47309;SDS011;33046;52.270;6.832;2023-11-19T04:04:07;23.65;;;5.60;;
47309;SDS011;33046;52.270;6.832;2023-11-19T04:06:14;25.77;;;8.57;;
47309;SDS011;33046;52.270;6.832;2023-11-19T04:08:21;25.98;;;7.10;;
47309;SDS011;33046;52.270;6.832;2023-11-19T04:10:29;28.15;;;8.02;;
47309;SDS011;33046;52.270;6.832;2023-11-19T04:12:36;37.83;;;9.10;;
47309;SDS011;33046;52.270;6.832;2023-11-19T04:14:43;33.35;;;7.70;;
47309;SDS011;33046;52.270;6.832;2023-11-19T04:16:50;31.88;;;6.82;;
47309;SDS011;33046;52.270;6.832;2023-11-19T04:18:57;24.70;;;4.88;;
47309;SDS011;33046;52.270;6.832;2023-11-19T04:21:05;28.60;;;4.00;;
47309;SDS011;33046;52.270;6.832;2023-11-19T04:23:12;25.95;;;5.07;;
47309;SDS011;33046;52.270;6.832;2023-11-19T04:25:19;30.10;;;7.55;;
47309;SDS011;33046;52.270;6.832;2023-11-19T04:27:27;24.02;;;4.78;;
47309;SDS011;33046;52.270;6.832;2023-11-19T04:29:34;32.85;;;6.22;;
47309;SDS011;33046;52.270;6.832;2023-11-19T04:31:41;22.58;;;4.85;;
47309;SDS011;33046;52.270;6.832;2023-11-19T04:33:48;32.83;;;6.13;;
47309;SDS011;33046;52.270;6.832;2023-11-19T04:35:55;28.88;;;3.95;;
47309;SDS011;33046;52.270;6.832;2023-11-19T04:38:01;33.92;;;4.95;;
47309;SDS011;33046;52.270;6.832;2023-11-19T04:40:08;24.98;;;5.35;;
47309;SDS011;33046;52.270;6.832;2023-11-19T04:42:16;31.60;;;5.03;;
47309;SDS011;33046;52.270;6.832;2023-11-19T04:44:24;27.17;;;4.45;;
47309;SDS011;33046;52.270;6.832;2023-11-19T04:46:31;33.55;;;5.55;;
47309;SDS011;33046;52.270;6.832;2023-11-19T04:48:38;31.98;;;6.38;;
47309;SDS011;33046;52.270;6.832;2023-11-19T04:50:47;25.27;;;4.07;;
47309;SDS011;33046;52.270;6.832;2023-11-19T04:52:54;35.17;;;8.18;;
47309;SDS011;33046;52.270;6.832;2023-11-19T04:55:02;31.98;;;7.15;;
47309;SDS011;33046;52.270;6.832;2023-11-19T04:57:09;24.98;;;4.65;;
47309;SDS011;33046;52.270;6.832;2023-11-19T04:59:16;41.15;;;7.20;;
47309;SDS011;33046;52.270;6.832;2023-11-19T05:01:24;33.25;;;5.65;;
47309;SDS011;33046;52.270;6.832;2023-11-19T05:03:31;35.88;;;6.80;;
47309;SDS011;33046;52.270;6.832;2023-11-19T05:05:38;25.05;;;5.78;;
47309;SDS011;33046;52.270;6.832;2023-11-19T05:07:45;29.85;;;3.70;;
47309;SDS011;33046;52.270;6.832;2023-11-19T05:09:51;27.45;;;5.05;;
47309;SDS011;33046;52.270;6.832;2023-11-19T05:11:58;33.45;;;5.25;;
47309;SDS011;33046;52.270;6.832;2023-11-19T05:14:05;29.27;;;6.68;;
47309;SDS011;33046;52.270;6.832;2023-11-19T05:16:12;27.63;;;4.88;;
47309;SDS011;33046;52.270;6.832;2023-11-19T05:18:20;39.08;;;6.00;;
47309;SDS011;33046;52.270;6.832;2023-11-19T05:20:27;39.03;;;7.13;;
47309;SDS011;33046;52.270;6.832;2023-11-19T05:22:34;33.28;;;5.95;;
47309;SDS011;33046;52.270;6.832;2023-11-19T05:24:41;41.47;;;7.25;;
47309;SDS011;33046;52.270;6.832;2023-11-19T05:26:47;33.83;;;7.65;;
47309;SDS011;33046;52.270;6.832;2023-11-19T05:28:54;32.72;;;5.47;;
47309;SDS011;33046;52.270;6.832;2023-11-19T05:31:01;38.95;;;8.60;;
47309;SDS011;33046;52.270;6.832;2023-11-19T05:33:08;33.70;;;6.82;;
47309;SDS011;33046;52.270;6.832;2023-11-19T05:35:16;30.98;;;5.10;;
47309;SDS011;33046;52.270;6.832;2023-11-19T05:37:23;29.08;;;4.90;;
47309;SDS011;33046;52.270;6.832;2023-11-19T05:39:30;31.13;;;5.72;;
47309;SDS011;33046;52.270;6.832;2023-11-19T05:41:37;41.47;;;5.95;;
47309;SDS011;33046;52.270;6.832;2023-11-19T05:43:44;31.90;;;7.15;;
47309;SDS011;33046;52.270;6.832;2023-11-19T05:45:51;31.85;;;5.75;;
47309;SDS011;33046;52.270;6.832;2023-11-19T05:47:57;32.95;;;5.43;;
47309;SDS011;33046;52.270;6.832;2023-11-19T05:50:05;30.50;;;5.78;;
47309;SDS011;33046;52.270;6.832;2023-11-19T05:52:13;29.85;;;6.80;;
47309;SDS011;33046;52.270;6.832;2023-11-19T05:54:20;33.13;;;6.25;;
47309;SDS011;33046;52.270;6.832;2023-11-19T05:56:27;40.10;;;7.65;;
47309;SDS011;33046;52.270;6.832;2023-11-19T05:58:34;31.23;;;6.07;;
47309;SDS011;33046;52.270;6.832;2023-11-19T06:00:41;28.70;;;6.15;;
47309;SDS011;33046;52.270;6.832;2023-11-19T06:02:48;29.38;;;6.78;;
47309;SDS011;33046;52.270;6.832;2023-11-19T06:04:55;34.10;;;5.60;;
47309;SDS011;33046;52.270;6.832;2023-11-19T06:07:01;33.20;;;5.70;;
47309;SDS011;33046;52.270;6.832;2023-11-19T06:09:10;33.13;;;6.15;;
47309;SDS011;33046;52.270;6.832;2023-11-19T06:11:18;27.90;;;7.20;;
47309;SDS011;33046;52.270;6.832;2023-11-19T06:13:25;34.03;;;6.93;;
47309;SDS011;33046;52.270;6.832;2023-11-19T06:15:32;32.00;;;5.53;;
47309;SDS011;33046;52.270;6.832;2023-11-19T06:17:39;38.70;;;8.98;;
47309;SDS011;33046;52.270;6.832;2023-11-19T06:19:46;33.03;;;5.88;;
47309;SDS011;33046;52.270;6.832;2023-11-19T06:21:53;36.47;;;6.93;;
47309;SDS011;33046;52.270;6.832;2023-11-19T06:24:00;38.65;;;6.97;;
47309;SDS011;33046;52.270;6.832;2023-11-19T06:26:08;40.75;;;10.02;;
47309;SDS011;33046;52.270;6.832;2023-11-19T06:28:15;36.17;;;7.10;;
47309;SDS011;33046;52.270;6.832;2023-11-19T06:30:22;23.23;;;5.55;;
47309;SDS011;33046;52.270;6.832;2023-11-19T06:32:29;24.15;;;4.80;;
47309;SDS011;33046;52.270;6.832;2023-11-19T06:34:35;39.03;;;6.15;;
47309;SDS011;33046;52.270;6.832;2023-11-19T06:36:42;29.70;;;6.43;;
47309;SDS011;33046;52.270;6.832;2023-11-19T06:38:49;32.90;;;6.05;;
47309;SDS011;33046;52.270;6.832;2023-11-19T06:40:56;32.63;;;5.28;;
47309;SDS011;33046;52.270;6.832;2023-11-19T06:43:04;28.25;;;5.63;;
47309;SDS011;33046;52.270;6.832;2023-11-19T06:45:11;32.22;;;5.45;;
47309;SDS011;33046;52.270;6.832;2023-11-19T06:47:18;28.42;;;5.97;;
47309;SDS011;33046;52.270;6.832;2023-11-19T06:49:25;28.35;;;5.07;;
47309;SDS011;33046;52.270;6.832;2023-11-19T06:51:32;41.08;;;8.23;;
47309;SDS011;33046;52.270;6.832;2023-11-19T06:53:39;34.53;;;6.57;;
47309;SDS011;33046;52.270;6.832;2023-11-19T06:55:46;31.95;;;4.93;;
47309;SDS011;33046;52.270;6.832;2023-11-19T06:57:53;27.90;;;5.18;;
47309;SDS011;33046;52.270;6.832;2023-11-19T07:00:01;34.40;;;5.63;;
47309;SDS011;33046;52.270;6.832;2023-11-19T07:02:08;37.78;;;6.65;;
47309;SDS011;33046;52.270;6.832;2023-11-19T07:04:15;37.67;;;9.45;;
47309;SDS011;33046;52.270;6.832;2023-11-19T07:06:22;40.75;;;6.22;;
47309;SDS011;33046;52.270;6.832;2023-11-19T07:08:40;44.88;;;7.10;;
47309;SDS011;33046;52.270;6.832;2023-11-19T07:10:48;33.15;;;8.32;;
47309;SDS011;33046;52.270;6.832;2023-11-19T07:12:54;31.92;;;6.72;;
47309;SDS011;33046;52.270;6.832;2023-11-19T07:15:03;34.72;;;5.80;;
47309;SDS011;33046;52.270;6.832;2023-11-19T07:17:11;26.60;;;4.45;;
47309;SDS011;33046;52.270;6.832;2023-11-19T07:19:18;33.33;;;6.47;;
47309;SDS011;33046;52.270;6.832;2023-11-19T07:21:25;31.10;;;5.95;;
47309;SDS011;33046;52.270;6.832;2023-11-19T07:23:32;30.00;;;6.68;;
47309;SDS011;33046;52.270;6.832;2023-11-19T07:25:39;36.22;;;5.85;;
47309;SDS011;33046;52.270;6.832;2023-11-19T07:27:45;38.10;;;6.47;;
47309;SDS011;33046;52.270;6.832;2023-11-19T07:29:52;39.63;;;7.20;;
47309;SDS011;33046;52.270;6.832;2023-11-19T07:32:00;28.95;;;6.97;;
47309;SDS011;33046;52.270;6.832;2023-11-19T07:34:07;23.98;;;3.72;;
47309;SDS011;33046;52.270;6.832;2023-11-19T07:36:14;38.97;;;6.43;;
47309;SDS011;33046;52.270;6.832;2023-11-19T07:38:21;21.92;;;5.75;;
47309;SDS011;33046;52.270;6.832;2023-11-19T07:40:28;32.95;;;7.53;;
47309;SDS011;33046;52.270;6.832;2023-11-19T07:42:35;30.73;;;5.05;;
47309;SDS011;33046;52.270;6.832;2023-11-19T07:44:42;37.53;;;7.72;;
47309;SDS011;33046;52.270;6.832;2023-11-19T07:46:50;27.58;;;5.65;;
47309;SDS011;33046;52.270;6.832;2023-11-19T07:48:58;30.70;;;7.18;;
47309;SDS011;33046;52.270;6.832;2023-11-19T07:51:05;33.97;;;6.10;;
47309;SDS011;33046;52.270;6.832;2023-11-19T07:53:12;31.50;;;6.38;;
47309;SDS011;33046;52.270;6.832;2023-11-19T07:55:19;31.83;;;7.15;;
47309;SDS011;33046;52.270;6.832;2023-11-19T07:57:26;41.92;;;9.23;;
47309;SDS011;33046;52.270;6.832;2023-11-19T07:59:32;35.17;;;5.28;;
47309;SDS011;33046;52.270;6.832;2023-11-19T08:01:39;24.45;;;6.53;;
47309;SDS011;33046;52.270;6.832;2023-11-19T08:03:46;36.72;;;6.90;;
47309;SDS011;33046;52.270;6.832;2023-11-19T08:05:57;36.42;;;8.30;;
47309;SDS011;33046;52.270;6.832;2023-11-19T08:08:04;35.53;;;8.50;;
47309;SDS011;33046;52.270;6.832;2023-11-19T08:10:11;36.25;;;7.65;;
47309;SDS011;33046;52.270;6.832;2023-11-19T08:12:18;35.90;;;6.22;;
47309;SDS011;33046;52.270;6.832;2023-11-19T08:14:25;42.00;;;5.72;;
47309;SDS011;33046;52.270;6.832;2023-11-19T08:16:31;41.55;;;8.02;;
47309;SDS011;33046;52.270;6.832;2023-11-19T08:18:38;34.03;;;6.47;;
47309;SDS011;33046;52.270;6.832;2023-11-19T08:20:47;34.15;;;5.07;;
47309;SDS011;33046;52.270;6.832;2023-11-19T08:22:55;33.65;;;5.25;;
47309;SDS011;33046;52.270;6.832;2023-11-19T08:25:02;47.30;;;8.73;;
47309;SDS011;33046;52.270;6.832;2023-11-19T08:27:10;40.45;;;5.35;;
47309;SDS011;33046;52.270;6.832;2023-11-19T08:29:17;33.45;;;5.07;;
47309;SDS011;33046;52.270;6.832;2023-11-19T08:31:24;32.47;;;7.35;;
47309;SDS011;33046;52.270;6.832;2023-11-19T08:33:31;59.17;;;9.13;;
47309;SDS011;33046;52.270;6.832;2023-11-19T08:35:38;34.92;;;6.45;;
47309;SDS011;33046;52.270;6.832;2023-11-19T08:37:44;27.30;;;5.47;;
47309;SDS011;33046;52.270;6.832;2023-11-19T08:39:53;31.42;;;6.65;;
47309;SDS011;33046;52.270;6.832;2023-11-19T08:42:00;35.97;;;5.88;;
47309;SDS011;33046;52.270;6.832;2023-11-19T08:44:06;29.88;;;6.00;;
47309;SDS011;33046;52.270;6.832;2023-11-19T08:46:13;34.08;;;7.40;;
47309;SDS011;33046;52.270;6.832;2023-11-19T08:48:20;37.25;;;5.15;;
47309;SDS011;33046;52.270;6.832;2023-11-19T08:50:27;36.47;;;5.18;;
47309;SDS011;33046;52.270;6.832;2023-11-19T08:52:34;31.60;;;5.72;;
47309;SDS011;33046;52.270;6.832;2023-11-19T08:54:42;28.48;;;5.60;;
47309;SDS011;33046;52.270;6.832;2023-11-19T08:56:50;35.47;;;6.28;;
47309;SDS011;33046;52.270;6.832;2023-11-19T08:58:57;38.20;;;5.63;;
47309;SDS011;33046;52.270;6.832;2023-11-19T09:01:04;29.52;;;5.80;;
47309;SDS011;33046;52.270;6.832;2023-11-19T09:03:11;24.20;;;5.07;;
47309;SDS011;33046;52.270;6.832;2023-11-19T09:05:17;31.45;;;5.90;;
47309;SDS011;33046;52.270;6.832;2023-11-19T09:07:24;38.15;;;6.93;;
47309;SDS011;33046;52.270;6.832;2023-11-19T09:09:31;28.83;;;5.00;;
47309;SDS011;33046;52.270;6.832;2023-11-19T09:11:38;28.52;;;6.60;;
47309;SDS011;33046;52.270;6.832;2023-11-19T09:13:46;27.85;;;4.47;;
47309;SDS011;33046;52.270;6.832;2023-11-19T09:15:53;41.28;;;7.57;;
47309;SDS011;33046;52.270;6.832;2023-11-19T09:18:00;30.10;;;6.03;;
47309;SDS011;33046;52.270;6.832;2023-11-19T09:20:07;28.17;;;6.32;;
47309;SDS011;33046;52.270;6.832;2023-11-19T09:22:15;28.58;;;5.10;;
47309;SDS011;33046;52.270;6.832;2023-11-19T09:24:21;25.30;;;5.47;;
47309;SDS011;33046;52.270;6.832;2023-11-19T09:26:28;29.52;;;6.90;;
47309;SDS011;33046;52.270;6.832;2023-11-19T09:28:35;41.78;;;9.50;;
47309;SDS011;33046;52.270;6.832;2023-11-19T09:30:44;39.38;;;6.88;;
47309;SDS011;33046;52.270;6.832;2023-11-19T09:32:51;33.60;;;4.65;;
47309;SDS011;33046;52.270;6.832;2023-11-19T09:34:58;33.60;;;4.47;;
47309;SDS011;33046;52.270;6.832;2023-11-19T09:37:05;29.90;;;5.00;;
47309;SDS011;33046;52.270;6.832;2023-11-19T09:39:27;20.92;;;4.95;;
47309;SDS011;33046;52.270;6.832;2023-11-19T09:41:34;35.72;;;4.85;;
47309;SDS011;33046;52.270;6.832;2023-11-19T09:43:41;32.00;;;4.97;;
47309;SDS011;33046;52.270;6.832;2023-11-19T09:45:50;28.98;;;5.38;;
47309;SDS011;33046;52.270;6.832;2023-11-19T09:47:57;25.25;;;3.97;;
47309;SDS011;33046;52.270;6.832;2023-11-19T09:50:07;23.73;;;5.43;;
47309;SDS011;33046;52.270;6.832;2023-11-19T09:52:14;29.35;;;3.97;;
47309;SDS011;33046;52.270;6.832;2023-11-19T09:54:21;30.10;;;7.43;;
47309;SDS011;33046;52.270;6.832;2023-11-19T09:56:28;34.00;;;5.85;;
47309;SDS011;33046;52.270;6.832;2023-11-19T09:58:35;29.35;;;6.72;;
47309;SDS011;33046;52.270;6.832;2023-11-19T10:00:42;28.80;;;5.57;;
47309;SDS011;33046;52.270;6.832;2023-11-19T10:02:51;30.92;;;3.97;;
47309;SDS011;33046;52.270;6.832;2023-11-19T10:04:58;31.70;;;4.47;;
47309;SDS011;33046;52.270;6.832;2023-11-19T10:07:05;29.30;;;5.18;;
47309;SDS011;33046;52.270;6.832;2023-11-19T10:09:12;31.17;;;5.45;;
47309;SDS011;33046;52.270;6.832;2023-11-19T10:11:19;34.22;;;6.10;;
47309;SDS011;33046;52.270;6.832;2023-11-19T10:13:26;31.90;;;6.78;;
47309;SDS011;33046;52.270;6.832;2023-11-19T10:15:35;29.58;;;6.10;;
47309;SDS011;33046;52.270;6.832;2023-11-19T10:17:43;24.00;;;4.22;;
47309;SDS011;33046;52.270;6.832;2023-11-19T10:19:51;26.20;;;4.60;;
47309;SDS011;33046;52.270;6.832;2023-11-19T10:22:01;25.80;;;6.32;;
47309;SDS011;33046;52.270;6.832;2023-11-19T10:24:10;32.55;;;5.13;;
47309;SDS011;33046;52.270;6.832;2023-11-19T10:26:17;30.80;;;6.22;;
47309;SDS011;33046;52.270;6.832;2023-11-19T10:28:24;27.63;;;4.13;;
47309;SDS011;33046;52.270;6.832;2023-11-19T10:30:31;25.65;;;4.25;;
47309;SDS011;33046;52.270;6.832;2023-11-19T10:32:38;33.35;;;4.88;;
47309;SDS011;33046;52.270;6.832;2023-11-19T10:34:45;32.83;;;4.63;;
47309;SDS011;33046;52.270;6.832;2023-11-19T10:36:53;31.73;;;5.93;;
47309;SDS011;33046;52.270;6.832;2023-11-19T10:39:00;29.10;;;4.97;;
47309;SDS011;33046;52.270;6.832;2023-11-19T10:41:07;26.70;;;5.18;;
47309;SDS011;33046;52.270;6.832;2023-11-19T10:43:14;39.50;;;7.03;;
47309;SDS011;33046;52.270;6.832;2023-11-19T10:45:23;27.77;;;4.05;;
47309;SDS011;33046;52.270;6.832;2023-11-19T10:47:30;25.55;;;5.43;;
47309;SDS011;33046;52.270;6.832;2023-11-19T10:49:41;23.88;;;4.55;;
47309;SDS011;33046;52.270;6.832;2023-11-19T10:51:48;30.55;;;5.80;;
47309;SDS011;33046;52.270;6.832;2023-11-19T10:53:58;33.67;;;6.78;;
47309;SDS011;33046;52.270;6.832;2023-11-19T10:56:10;20.13;;;3.97;;
47309;SDS011;33046;52.270;6.832;2023-11-19T10:58:17;28.60;;;5.18;;
47309;SDS011;33046;52.270;6.832;2023-11-19T11:00:24;32.38;;;3.92;;
47309;SDS011;33046;52.270;6.832;2023-11-19T11:02:33;24.45;;;4.47;;
47309;SDS011;33046;52.270;6.832;2023-11-19T11:04:46;40.65;;;5.85;;
47309;SDS011;33046;52.270;6.832;2023-11-19T11:06:56;24.67;;;4.15;;
47309;SDS011;33046;52.270;6.832;2023-11-19T11:09:06;26.30;;;6.22;;
47309;SDS011;33046;52.270;6.832;2023-11-19T11:11:15;31.70;;;5.05;;
47309;SDS011;33046;52.270;6.832;2023-11-19T11:13:23;27.05;;;4.80;;
47309;SDS011;33046;52.270;6.832;2023-11-19T11:15:30;20.30;;;3.38;;
47309;SDS011;33046;52.270;6.832;2023-11-19T11:17:38;29.75;;;4.53;;
47309;SDS011;33046;52.270;6.832;2023-11-19T11:19:47;30.15;;;6.72;;
47309;SDS011;33046;52.270;6.832;2023-11-19T11:21:54;27.30;;;5.50;;
47309;SDS011;33046;52.270;6.832;2023-11-19T11:24:11;28.67;;;4.68;;
47309;SDS011;33046;52.270;6.832;2023-11-19T11:26:34;20.02;;;3.50;;
47309;SDS011;33046;52.270;6.832;2023-11-19T11:28:52;30.50;;;4.85;;
47309;SDS011;33046;52.270;6.832;2023-11-19T11:31:06;23.73;;;6.10;;
47309;SDS011;33046;52.270;6.832;2023-11-19T11:33:23;29.90;;;5.18;;
47309;SDS011;33046;52.270;6.832;2023-11-19T11:35:41;30.67;;;5.72;;
47309;SDS011;33046;52.270;6.832;2023-11-19T11:37:55;23.50;;;4.95;;
47309;SDS011;33046;52.270;6.832;2023-11-19T11:40:09;24.83;;;5.90;;
47309;SDS011;33046;52.270;6.832;2023-11-19T11:42:33;26.95;;;4.75;;
47309;SDS011;33046;52.270;6.832;2023-11-19T11:44:59;25.10;;;6.47;;
47309;SDS011;33046;52.270;6.832;2023-11-19T11:47:08;35.13;;;5.60;;
47309;SDS011;33046;52.270;6.832;2023-11-19T11:49:15;27.60;;;5.07;;
47309;SDS011;33046;52.270;6.832;2023-11-19T11:54:10;29.70;;;5.40;;
47309;SDS011;33046;52.270;6.832;2023-11-19T11:56:18;27.10;;;4.18;;
47309;SDS011;33046;52.270;6.832;2023-11-19T11:58:26;19.42;;;2.97;;
47309;SDS011;33046;52.270;6.832;2023-11-19T12:00:37;30.02;;;4.13;;
47309;SDS011;33046;52.270;6.832;2023-11-19T12:02:45;27.60;;;5.82;;
47309;SDS011;33046;52.270;6.832;2023-11-19T12:04:52;22.88;;;3.40;;
47309;SDS011;33046;52.270;6.832;2023-11-19T12:07:03;21.15;;;4.55;;
47309;SDS011;33046;52.270;6.832;2023-11-19T12:09:11;17.08;;;3.40;;
47309;SDS011;33046;52.270;6.832;2023-11-19T12:11:19;24.15;;;5.00;;
47309;SDS011;33046;52.270;6.832;2023-11-19T12:13:42;25.10;;;4.75;;
47309;SDS011;33046;52.270;6.832;2023-11-19T12:16:08;23.63;;;4.07;;
47309;SDS011;33046;52.270;6.832;2023-11-19T12:18:16;29.95;;;4.10;;
47309;SDS011;33046;52.270;6.832;2023-11-19T12:20:25;18.17;;;3.35;;
47309;SDS011;33046;52.270;6.832;2023-11-19T12:22:36;27.42;;;3.80;;
47309;SDS011;33046;52.270;6.832;2023-11-19T12:24:44;30.48;;;5.85;;
47309;SDS011;33046;52.270;6.832;2023-11-19T12:26:52;27.67;;;4.15;;
47309;SDS011;33046;52.270;6.832;2023-11-19T12:28:59;24.50;;;3.63;;
47309;SDS011;33046;52.270;6.832;2023-11-19T12:31:07;21.10;;;3.28;;
47309;SDS011;33046;52.270;6.832;2023-11-19T12:33:14;28.25;;;4.40;;
47309;SDS011;33046;52.270;6.832;2023-11-19T12:35:21;24.13;;;4.90;;
47309;SDS011;33046;52.270;6.832;2023-11-19T12:37:29;27.25;;;4.68;;